Flight Track Log - Related Links

Times and Time Zones

All times are in EDT time to prevent confusion due to time zone crossing. See the AWI3845 flight status page for this flight to view local times or setup timezone preferences in your user account.


Time Position Orientation Groundspeed Altitude Reporting Facility
EDT Latitude Longitude Course Direction KTS MPH feet Rate Location/Type
Wed 03:57:52 PM 39.8667 -75.2833 232° Southwest 152 175 1,000  Level Philadelphia TRACON
Wed 03:58:53 PM 39.8500 -75.3333 247° West 177 204 3,300 2,275 Climbing Philadelphia TRACON
Wed 04:00:00 PM 39.8481 -75.5611 258° West  Level FlightAware Approximate
Wed 04:00:54 PM 39.8456 -75.5053 268° West 232 267 7,900  Level New York Center
Wed 04:01:00 PM 39.8333 -75.6757 270° West  Level FlightAware Approximate
Wed 04:01:56 PM 39.8422 -75.5861 267° West 244 281 10,000  Level New York Center
Wed 04:02:00 PM 39.8291 -75.7903 232° Southwest  Level FlightAware Approximate
Wed 04:02:53 PM 39.8375 -75.6967 267° West 269 310 11,500  Level New York Center
Wed 04:03:00 PM 39.7741 -75.8822 232° Southwest  Level FlightAware Approximate
Wed 04:03:53 PM 39.8006 -75.7858 242° Southwest 294 338 12,800  Level New York Center
Wed 04:04:54 PM 39.7392 -75.9003 235° Southwest 337 388 13,700 992 Climbing New York Center
Wed 04:05:54 PM 39.6872 -75.9936 234° Southwest 361 415 14,800 1,051 Climbing New York Center
Wed 04:07:11 PM 39.6039 -76.1411 234° Southwest 381 438 16,100 920 Climbing Washington Center
Wed 04:08:11 PM 39.5431 -76.2508 234° Southwest 381 438 16,900 864 Climbing Washington Center
Wed 04:09:09 PM 39.4800 -76.3606 233° Southwest 381 438 17,800 958 Climbing Washington Center
Wed 04:10:10 PM 39.4144 -76.4700 232° Southwest 387 445 18,800 1,131 Climbing Washington Center
Wed 04:11:11 PM 39.3428 -76.5736 228° Southwest 392 451 20,100 1,339 Climbing Washington Center
Wed 04:12:11 PM 39.2775 -76.6747 230° Southwest 392 451 21,500 1,322 Climbing Washington Center
Wed 04:13:09 PM 39.2119 -76.7783 231° Southwest 387 445 22,700 1,361 Climbing Washington Center
Wed 04:14:10 PM 39.1442 -76.8817 230° Southwest 381 438 24,200 1,563 Climbing Washington Center
Wed 04:15:08 PM 39.0806 -76.9794 230° Southwest 371 427 25,800 1,900 Climbing Washington Center
Wed 04:16:10 PM 39.0128 -77.0717 227° Southwest 366 421 28,000 1,041 Climbing Washington Center
Wed 04:17:09 PM 38.9344 -77.1581 221° Southwest 366 421 27,900  Descending Washington Center
Wed 04:18:09 PM 38.8542 -77.2444 220° Southwest 373 429 28,000 50 Climbing Washington Center
Wed 04:19:09 PM 38.7672 -77.3383 220° Southwest 395 455 28,000  Level Washington Center
Wed 04:20:11 PM 38.6783 -77.4372 221° Southwest 413 475 28,000  Level Washington Center
Wed 04:21:09 PM 38.5850 -77.5386 220° Southwest 427 491 28,000  Level Washington Center
Wed 04:22:09 PM 38.4936 -77.6369 220° Southwest 433 498 28,000  Level Washington Center
Wed 04:23:10 PM 38.4000 -77.7378 220° Southwest 443 510 28,000  Level Washington Center
Wed 04:24:11 PM 38.3086 -77.8408 222° Southwest 443 510 28,000  Level Washington Center
Wed 04:25:09 PM 38.2128 -77.9436 220° Southwest 443 510 28,000  Level Washington Center
Wed 04:26:09 PM 38.1169 -78.0436 219° Southwest 443 510 28,000  Level Washington Center
Wed 04:27:10 PM 38.0231 -78.1461 221° Southwest 443 510 28,000  Level Washington Center
Wed 04:28:11 PM 37.9400 -78.2275 218° Southwest 436 502 28,000  Level Washington Center
Wed 04:29:11 PM 37.8419 -78.3186 216° Southwest 441 507 28,000  Level Washington Center
Wed 04:30:09 PM 37.7439 -78.4150 218° Southwest 446 513 28,000  Level Washington Center
Wed 04:31:10 PM 37.6350 -78.5158 216° Southwest 446 513 28,000  Level Washington Center
Wed 04:32:10 PM 37.5347 -78.6089 216° Southwest 446 513 28,000  Level Washington Center
Wed 04:33:11 PM 37.4342 -78.7017 216° Southwest 446 513 28,000  Level Washington Center
Wed 04:34:11 PM 37.3358 -78.7917 216° Southwest 441 507 28,000  Level Washington Center
Wed 04:35:09 PM 37.2461 -78.8767 217° Southwest 446 513 28,000  Level Washington Center
Wed 04:36:09 PM 37.1475 -78.9661 216° Southwest 446 513 28,000  Level Washington Center
Wed 04:37:10 PM 37.0511 -79.0583 217° Southwest 446 513 28,000  Level Washington Center
Wed 04:38:11 PM 36.9503 -79.1500 216° Southwest 446 513 28,000  Level Washington Center
Wed 04:39:09 PM 36.8517 -79.2414 217° Southwest 446 513 28,000  Level Washington Center
Wed 04:40:09 PM 36.7464 -79.3400 217° Southwest 441 507 28,000  Level Washington Center
Wed 04:41:10 PM 36.6433 -79.4308 215° Southwest 441 507 28,000  Level Washington Center
Wed 04:42:09 PM 36.5486 -79.5194 217° Southwest 441 507 28,000  Level Washington Center
Wed 04:43:44 PM 36.3911 -79.6594 216° Southwest 461 531 28,000  Level Atlanta Center
Wed 04:44:44 PM 36.3042 -79.7389 216° Southwest 456 525 28,000  Level Atlanta Center
Wed 04:45:44 PM 36.2069 -79.8239 215° Southwest 445 512 28,000  Level Atlanta Center
Wed 04:46:44 PM 36.1078 -79.9139 216° Southwest 445 512 28,000  Level Atlanta Center
Wed 04:47:44 PM 36.0064 -79.9961 213° Southwest 445 512 28,000  Level Atlanta Center
Wed 04:48:44 PM 35.8831 -80.0533 201° Southwest 438 504 28,000 -350 Level Atlanta Center
Wed 04:49:44 PM 35.7703 -80.1128 203° Southwest 438 504 27,300 -1,150 Descending Atlanta Center
Wed 04:50:44 PM 35.6511 -80.1744 203° Southwest 460 529 25,700 -1,550 Descending Atlanta Center
Wed 04:51:44 PM 35.5381 -80.2308 202° Southwest 455 524 24,200 -850 Descending Atlanta Center
Wed 04:52:44 PM 35.4394 -80.2789 202° Southwest 437 503 24,000 -650 Descending Atlanta Center
Wed 04:53:44 PM 35.3286 -80.3347 202° Southwest 432 497 22,900 -1,000 Descending Atlanta Center
Wed 04:54:44 PM 35.2136 -80.3933 203° Southwest 442 509 22,000 -700 Descending Atlanta Center
Wed 04:55:44 PM 35.1025 -80.4492 202° Southwest 437 503 21,500 -1,250 Descending Atlanta Center
Wed 04:56:44 PM 34.9914 -80.5044 202° Southwest 437 503 19,500 -1,841 Descending Atlanta Center
Wed 04:58:40 PM 34.7817 -80.6075 202° Southwest 398 458 16,100 -1,534 Descending Jacksonville Center
Wed 04:59:40 PM 34.6783 -80.6583 202° Southwest 391 450 15,000 -800 Descending Jacksonville Center
Wed 05:00:40 PM 34.5811 -80.7086 203° Southwest 403 464 14,500 -1,050 Descending Jacksonville Center
Wed 05:01:40 PM 34.4797 -80.7592 202° Southwest 408 470 12,900 -1,550 Descending Jacksonville Center
Wed 05:02:40 PM 34.3803 -80.8069 202° Southwest 401 461 11,400 -1,400 Descending Jacksonville Center
Wed 05:03:40 PM 34.2956 -80.8492 202° Southwest 362 417 10,100 -1,350 Descending Jacksonville Center
Wed 05:04:40 PM 34.2147 -80.8836 199° South 317 365 8,700 -1,450 Descending Jacksonville Center
Wed 05:05:40 PM 34.1422 -80.9206 203° Southwest 298 343 7,200 -1,500 Descending Jacksonville Center
Wed 05:06:40 PM 34.0761 -80.9494 200° South 276 318 5,700 -1,500 Descending Jacksonville Center
Wed 05:07:40 PM 34.0092 -80.9511 181° South 253 291 4,200 -1,500 Descending Jacksonville Center
Wed 05:08:40 PM 33.9508 -80.9522 181° South 232 267 2,700 -1,500 Descending Jacksonville Center

Login

Don't have an account? Register now (free) for customized features, flight alerts, and more!